< < Back
Terminal Aerodrome Forecast


Current Version              Previous Versions:   1  2  3  4  5  6  7  8  9  

Terminal Aerodrome Forecast

734
FTUS42 KILM 051729
TAFFLO
TAF
KFLO 051729Z 0518/0618 21008KT P6SM VCTS BKN050CB
     FM061000 21009KT P6SM VCSH BKN025=

Latest METAR

199
SAUS70 KWBC 070200
MTRFLO
METAR KFLO 070153Z 19007KT 10SM CLR 26/22 A3009 RMK AO2 SLP185
T02610222


USA.gov is the U.S. government's official web portal to all federal, state and local government web resources and services.